createdAt,value
2023-09-27T00:00:29.668Z,101018.47
2023-09-27T00:02:59.128Z,101015.28
2023-09-27T00:05:29.193Z,101008.50
2023-09-27T00:07:57.531Z,100996.53
2023-09-27T00:10:25.860Z,100996.75
2023-09-27T00:12:53.808Z,100985.75
2023-09-27T00:15:21.582Z,100987.13
2023-09-27T00:17:49.804Z,100980.31
2023-09-27T00:20:20.711Z,100988.59
2023-09-27T00:22:50.597Z,100996.91
2023-09-27T00:25:18.468Z,100993.13
2023-09-27T00:27:46.561Z,101000.41
2023-09-27T00:30:15.842Z,100999.91
2023-09-27T00:32:45.532Z,100996.78
2023-09-27T00:35:20.228Z,100994.28
2023-09-27T00:37:50.271Z,100985.84
2023-09-27T00:40:19.479Z,100986.00
2023-09-27T00:42:48.681Z,100986.31
2023-09-27T00:45:18.200Z,100976.69
2023-09-27T00:47:48.233Z,100971.72
2023-09-27T00:50:16.860Z,100970.91
2023-09-27T00:52:46.206Z,100984.50
2023-09-27T00:55:18.296Z,100989.13
2023-09-27T00:57:46.611Z,100991.13
2023-09-27T01:00:16.098Z,100992.28
2023-09-27T01:02:43.984Z,100991.63
2023-09-27T01:05:12.274Z,100997.94
2023-09-27T01:07:41.499Z,100999.94
2023-09-27T01:10:10.880Z,100995.63
2023-09-27T01:12:40.397Z,100988.63
2023-09-27T01:15:09.497Z,100986.81
2023-09-27T01:17:37.552Z,100987.13
2023-09-27T01:20:12.500Z,100991.81
2023-09-27T01:22:40.268Z,100999.25
2023-09-27T01:25:17.263Z,100995.28
2023-09-27T01:27:45.985Z,100995.75
2023-09-27T01:30:13.973Z,100989.81
2023-09-27T01:32:43.924Z,100982.00
2023-09-27T01:35:11.876Z,100993.91
2023-09-27T01:37:39.713Z,100999.72
2023-09-27T01:40:11.879Z,101007.16
2023-09-27T01:42:44.367Z,101006.34
2023-09-27T01:45:13.920Z,101006.69
2023-09-27T01:47:42.103Z,101009.47
2023-09-27T01:50:11.077Z,101003.66
2023-09-27T01:52:39.233Z,101004.66
2023-09-27T01:55:07.286Z,100998.50
2023-09-27T01:57:36.612Z,101004.13
2023-09-27T02:00:06.964Z,101011.59
2023-09-27T02:02:40.472Z,101005.63
2023-09-27T02:05:09.885Z,101018.19
2023-09-27T02:07:39.406Z,101012.41
2023-09-27T02:10:07.741Z,101017.03
2023-09-27T02:12:37.953Z,101021.00
2023-09-27T02:15:06.703Z,101009.72
2023-09-27T02:17:34.652Z,101023.13
2023-09-27T02:20:06.331Z,101019.94
2023-09-27T02:22:34.320Z,101035.22
2023-09-27T02:25:02.228Z,101043.31
2023-09-27T02:27:30.051Z,101047.09
2023-09-27T02:29:59.174Z,101048.09
2023-09-27T02:32:27.019Z,101042.63
2023-09-27T02:34:54.780Z,101039.16
2023-09-27T02:37:22.633Z,101040.13
2023-09-27T02:39:50.429Z,101040.13
2023-09-27T02:42:18.321Z,101042.78
2023-09-27T02:44:46.530Z,101036.00
2023-09-27T02:47:15.704Z,101042.28
2023-09-27T02:49:43.424Z,101045.09
2023-09-27T02:52:12.668Z,101048.88
2023-09-27T02:54:40.395Z,101051.72
2023-09-27T02:57:08.163Z,101052.72
2023-09-27T02:59:35.972Z,101048.38
2023-09-27T03:02:05.658Z,101044.91
2023-09-27T03:04:35.792Z,101038.78
2023-09-27T03:07:03.910Z,101033.63
2023-09-27T03:09:31.820Z,101031.13
2023-09-27T03:11:59.609Z,101035.78
2023-09-27T03:14:27.460Z,101040.09
2023-09-27T03:16:55.369Z,101031.59
2023-09-27T03:19:23.573Z,101021.00
2023-09-27T03:21:53.240Z,101024.66
2023-09-27T03:24:21.008Z,101028.28
2023-09-27T03:26:49.172Z,101024.00
2023-09-27T03:29:17.047Z,101018.00
2023-09-27T03:31:45.864Z,101013.84
2023-09-27T03:34:13.576Z,101009.53
2023-09-27T03:36:41.413Z,100999.91
2023-09-27T03:39:10.475Z,101010.69
2023-09-27T03:41:40.096Z,101009.19
2023-09-27T03:44:08.594Z,101007.66
2023-09-27T03:46:36.792Z,101013.16
2023-09-27T03:49:04.792Z,101014.97
2023-09-27T03:51:32.471Z,101013.47
2023-09-27T03:54:00.257Z,101020.72
2023-09-27T03:56:30.243Z,101023.53
2023-09-27T03:58:59.258Z,101025.34
2023-09-27T04:01:27.220Z,101028.81
2023-09-27T04:03:55.214Z,101030.81
2023-09-27T04:06:23.039Z,101024.00
2023-09-27T04:08:51.041Z,101022.19
2023-09-27T04:11:18.754Z,101021.34
2023-09-27T04:13:49.519Z,101025.81
2023-09-27T04:16:17.337Z,101035.59
2023-09-27T04:18:45.059Z,101037.53
2023-09-27T04:21:13.511Z,101039.53
2023-09-27T04:23:43.596Z,101034.69
2023-09-27T04:26:11.348Z,101037.34
2023-09-27T04:28:39.383Z,101031.22
2023-09-27T04:31:08.644Z,101043.63
2023-09-27T04:33:36.359Z,101034.88
2023-09-27T04:36:04.234Z,101036.00
2023-09-27T04:38:31.962Z,101033.34
2023-09-27T04:40:59.746Z,101048.41
2023-09-27T04:43:27.590Z,101044.09
2023-09-27T04:45:55.372Z,101040.63
2023-09-27T04:48:24.450Z,101045.06
2023-09-27T04:50:52.430Z,101051.06
2023-09-27T04:53:20.168Z,101046.75
2023-09-27T04:55:49.465Z,101044.09
2023-09-27T04:58:17.544Z,101045.91
2023-09-27T05:00:46.150Z,101050.38
2023-09-27T05:03:13.983Z,101056.66
2023-09-27T05:05:43.466Z,101062.13
2023-09-27T05:08:11.238Z,101057.13
2023-09-27T05:10:38.983Z,101057.13
2023-09-27T05:13:07.231Z,101061.44
2023-09-27T05:15:35.073Z,101054.63
2023-09-27T05:18:02.972Z,101049.31
2023-09-27T05:20:30.735Z,101051.97
2023-09-27T05:23:00.642Z,101052.81
2023-09-27T05:25:28.392Z,101048.50
2023-09-27T05:27:58.059Z,101054.34
2023-09-27T05:30:25.826Z,101051.69
2023-09-27T05:32:54.348Z,101049.69
2023-09-27T05:35:22.517Z,101053.34
2023-09-27T05:37:50.287Z,101045.22
2023-09-27T05:40:19.417Z,101038.78
2023-09-27T05:42:47.190Z,101032.53
2023-09-27T05:45:15.077Z,101031.38
2023-09-27T05:47:43.422Z,101031.88
2023-09-27T05:50:14.487Z,101034.06
2023-09-27T05:52:44.864Z,101038.06
2023-09-27T05:55:13.062Z,101036.94
2023-09-27T05:57:42.276Z,101043.72
2023-09-27T06:00:17.145Z,101044.25
2023-09-27T06:02:45.111Z,101042.94
2023-09-27T06:05:13.660Z,101042.50
2023-09-27T06:07:41.537Z,101039.91
2023-09-27T06:10:10.200Z,101030.31
2023-09-27T06:12:37.941Z,101030.50
2023-09-27T06:15:08.257Z,101033.34
2023-09-27T06:17:36.179Z,101036.19
2023-09-27T06:20:07.261Z,101037.91
2023-09-27T06:22:35.616Z,101039.56
2023-09-27T06:25:03.499Z,101045.56
2023-09-27T06:27:31.605Z,101055.75
2023-09-27T06:29:59.335Z,101050.00
2023-09-27T06:32:28.724Z,101056.50
2023-09-27T06:34:56.678Z,101046.22
2023-09-27T06:37:24.430Z,101053.53
2023-09-27T06:39:52.248Z,101048.22
2023-09-27T06:42:20.264Z,101047.38
2023-09-27T06:44:48.112Z,101051.66
2023-09-27T06:47:15.976Z,101059.97
2023-09-27T06:49:45.264Z,101066.59
2023-09-27T06:52:12.992Z,101057.47
2023-09-27T06:54:41.832Z,101054.94
2023-09-27T06:57:09.528Z,101073.03
2023-09-27T06:59:37.517Z,101073.84
2023-09-27T07:02:06.343Z,101072.16
2023-09-27T07:04:34.396Z,101073.47
2023-09-27T07:07:03.724Z,101076.78
2023-09-27T07:09:34.232Z,101078.28
2023-09-27T07:12:03.126Z,101083.75
2023-09-27T07:14:30.929Z,101086.19
2023-09-27T07:17:01.872Z,101084.50
2023-09-27T07:19:32.215Z,101090.63
2023-09-27T07:22:00.509Z,101087.72
2023-09-27T07:24:32.167Z,101088.34
2023-09-27T07:26:59.895Z,101094.75
2023-09-27T07:29:28.572Z,101092.47
2023-09-27T07:31:56.422Z,101092.28
2023-09-27T07:34:24.129Z,101089.69
2023-09-27T07:36:52.485Z,101087.22
2023-09-27T07:39:21.442Z,101081.81
2023-09-27T07:41:51.087Z,101071.75
2023-09-27T07:44:19.335Z,101075.00
2023-09-27T07:46:47.347Z,101082.72
2023-09-27T07:49:15.096Z,101077.94
2023-09-27T07:51:43.052Z,101086.03
2023-09-27T07:54:13.499Z,101089.63
2023-09-27T07:56:41.874Z,101095.72
2023-09-27T07:59:11.060Z,101096.44
2023-09-27T08:01:38.942Z,101092.88
2023-09-27T08:04:12.024Z,101088.66
2023-09-27T08:06:41.056Z,101092.41
2023-09-27T08:09:14.820Z,101096.16
2023-09-27T08:11:48.676Z,101106.13
2023-09-27T08:14:19.722Z,101113.63
2023-09-27T08:16:48.108Z,101110.50
2023-09-27T08:19:17.081Z,101106.50
2023-09-27T08:21:44.777Z,101092.44
2023-09-27T08:24:12.540Z,101097.47
2023-09-27T08:26:40.329Z,101093.84
2023-09-27T08:29:09.083Z,101092.34
2023-09-27T08:31:39.176Z,101093.69
2023-09-27T08:34:07.194Z,101086.22
2023-09-27T08:36:35.172Z,101080.19
2023-09-27T08:39:03.508Z,101074.50
2023-09-27T08:41:32.348Z,101069.47
2023-09-27T08:44:00.477Z,101061.75
2023-09-27T08:46:31.476Z,101041.50
2023-09-27T08:49:01.811Z,101035.19
2023-09-27T08:51:31.040Z,101035.41
2023-09-27T08:53:59.195Z,101045.75
2023-09-27T08:56:29.433Z,101053.84
2023-09-27T08:58:58.854Z,101046.44
2023-09-27T09:01:27.408Z,101036.28
2023-09-27T09:03:55.558Z,101038.34
2023-09-27T09:06:25.992Z,101030.31
2023-09-27T09:08:54.150Z,101027.81
2023-09-27T09:11:24.242Z,101032.38
2023-09-27T09:14:04.773Z,101030.09
2023-09-27T09:16:40.860Z,101030.50
2023-09-27T09:19:32.839Z,101039.38
2023-09-27T09:22:09.807Z,101030.91
2023-09-27T09:24:38.088Z,101029.41
2023-09-27T09:27:08.788Z,101031.66
2023-09-27T09:29:50.061Z,101021.56
2023-09-27T09:32:19.992Z,101017.63
2023-09-27T09:34:49.354Z,101016.78
2023-09-27T09:37:22.584Z,101015.91
2023-09-27T09:39:52.840Z,101015.06
2023-09-27T09:42:34.379Z,101013.13
2023-09-27T09:45:06.822Z,101008.25
2023-09-27T09:47:36.547Z,100997.97
2023-09-27T09:50:07.818Z,100994.34
2023-09-27T09:52:41.128Z,100989.22
2023-09-27T09:55:19.987Z,100975.56
2023-09-27T09:58:00.570Z,100972.28
2023-09-27T10:00:28.912Z,100967.34
2023-09-27T10:03:10.855Z,100966.66
2023-09-27T10:05:40.058Z,100966.88
2023-09-27T10:08:09.436Z,100957.41
2023-09-27T10:10:38.395Z,100941.91
2023-09-27T10:13:09.089Z,100941.63
2023-09-27T10:15:38.254Z,100949.19
2023-09-27T10:18:38.266Z,100951.34
2023-09-27T10:21:09.230Z,100940.72
2023-09-27T10:23:59.762Z,100948.66
2023-09-27T10:26:43.609Z,100956.00
2023-09-27T10:29:15.156Z,100960.84
2023-09-27T10:32:16.443Z,100963.16
2023-09-27T10:34:44.293Z,100961.09
2023-09-27T10:37:19.370Z,100952.47
2023-09-27T10:40:21.141Z,100942.53
2023-09-27T10:42:49.453Z,100943.09
2023-09-27T10:45:18.824Z,100950.13
2023-09-27T10:47:48.223Z,100949.09
2023-09-27T10:50:17.698Z,100949.72
2023-09-27T10:52:45.591Z,100951.13
2023-09-27T10:55:15.268Z,100945.09
2023-09-27T10:57:44.451Z,100938.03
2023-09-27T11:00:14.776Z,100939.47
2023-09-27T11:02:43.892Z,100934.25
2023-09-27T11:05:11.805Z,100933.97
2023-09-27T11:07:47.702Z,100930.38
2023-09-27T11:10:33.449Z,100923.75
2023-09-27T11:13:14.166Z,100923.06
2023-09-27T11:15:43.751Z,100916.94
2023-09-27T11:18:12.376Z,100916.19
2023-09-27T11:20:40.796Z,100909.25
2023-09-27T11:23:09.345Z,100909.59
2023-09-27T11:25:38.828Z,100893.13
2023-09-27T11:28:06.751Z,100900.56
2023-09-27T11:30:36.950Z,100899.25
2023-09-27T11:33:07.470Z,100894.06
2023-09-27T11:35:36.149Z,100887.59
2023-09-27T11:38:10.265Z,100893.97
2023-09-27T11:40:39.351Z,100887.06
2023-09-27T11:43:07.496Z,100893.66
2023-09-27T11:45:50.142Z,100889.00
2023-09-27T11:48:32.251Z,100891.13
2023-09-27T11:51:00.348Z,100891.28
2023-09-27T11:53:28.822Z,100888.47
2023-09-27T11:55:57.281Z,100885.91
2023-09-27T11:58:25.264Z,100878.28
2023-09-27T12:00:54.316Z,100871.72
2023-09-27T12:03:22.348Z,100871.97
2023-09-27T12:05:50.585Z,100872.56
2023-09-27T12:08:18.713Z,100859.19
2023-09-27T12:10:46.423Z,100858.84
2023-09-27T12:13:14.126Z,100855.69
2023-09-27T12:15:42.351Z,100855.69
2023-09-27T12:18:11.995Z,100852.75
2023-09-27T12:20:42.582Z,100854.97
2023-09-27T12:23:12.031Z,100838.34
2023-09-27T12:25:40.014Z,100837.63
2023-09-27T12:28:07.835Z,100845.72
2023-09-27T12:30:35.786Z,100840.31
2023-09-27T12:33:04.121Z,100834.81
2023-09-27T12:35:33.799Z,100830.25
2023-09-27T12:38:05.134Z,100825.78
2023-09-27T12:40:33.121Z,100820.16
2023-09-27T12:43:01.116Z,100819.94
2023-09-27T12:45:28.990Z,100810.13
2023-09-27T12:47:56.848Z,100816.81
2023-09-27T12:50:27.997Z,100815.38
2023-09-27T12:52:57.425Z,100815.38
2023-09-27T12:55:25.810Z,100807.00
2023-09-27T12:57:54.177Z,100806.97
2023-09-27T13:00:22.745Z,100799.69
2023-09-27T13:02:50.685Z,100807.44
2023-09-27T13:05:18.722Z,100797.09
2023-09-27T13:07:46.471Z,100791.63
2023-09-27T13:10:15.693Z,100796.13
2023-09-27T13:12:44.109Z,100788.00
2023-09-27T13:15:12.659Z,100795.78
2023-09-27T13:17:40.655Z,100799.22
2023-09-27T13:20:11.314Z,100795.59
2023-09-27T13:22:39.619Z,100796.50
2023-09-27T13:25:08.155Z,100782.56
2023-09-27T13:27:37.452Z,100780.50
2023-09-27T13:30:09.496Z,100777.06
2023-09-27T13:32:39.416Z,100769.50
2023-09-27T13:35:08.142Z,100783.69
2023-09-27T13:37:36.465Z,100779.41
2023-09-27T13:40:13.949Z,100776.22
2023-09-27T13:42:43.436Z,100768.91
2023-09-27T13:45:14.408Z,100759.50
2023-09-27T13:47:42.581Z,100757.34
2023-09-27T13:50:10.636Z,100753.09
2023-09-27T13:52:38.850Z,100757.44
2023-09-27T13:55:12.045Z,100749.03
2023-09-27T13:57:40.089Z,100739.63
2023-09-27T14:00:14.004Z,100730.09
2023-09-27T14:02:44.088Z,100731.44
2023-09-27T14:05:12.733Z,100729.78
2023-09-27T14:07:41.364Z,100734.09
2023-09-27T14:10:10.208Z,100728.91
2023-09-27T14:12:37.896Z,100728.59
2023-09-27T14:15:06.484Z,100723.13
2023-09-27T14:17:35.646Z,100724.66
2023-09-27T14:20:03.649Z,100717.06
2023-09-27T14:22:31.400Z,100708.63
2023-09-27T14:24:59.178Z,100707.25
2023-09-27T14:27:27.043Z,100708.78
2023-09-27T14:29:54.772Z,100705.22
2023-09-27T14:32:23.567Z,100699.47
2023-09-27T14:34:57.529Z,100702.69
2023-09-27T14:37:26.262Z,100707.50
2023-09-27T14:39:54.030Z,100696.94
2023-09-27T14:42:22.547Z,100697.22
2023-09-27T14:44:50.256Z,100699.91
2023-09-27T14:47:18.687Z,100702.72
2023-09-27T14:49:46.503Z,100700.47
2023-09-27T14:52:15.669Z,100695.47
2023-09-27T14:54:43.696Z,100689.31
2023-09-27T14:57:11.391Z,100692.94
2023-09-27T14:59:39.096Z,100693.47
2023-09-27T15:02:07.527Z,100685.09
2023-09-27T15:04:35.388Z,100680.22
2023-09-27T15:07:03.911Z,100677.00
2023-09-27T15:09:32.964Z,100681.06
2023-09-27T15:12:00.660Z,100682.38
2023-09-27T15:14:28.426Z,100676.41
2023-09-27T15:16:56.173Z,100676.19
2023-09-27T15:19:24.019Z,100674.44
2023-09-27T15:21:51.716Z,100663.63
2023-09-27T15:24:19.432Z,100668.81
2023-09-27T15:26:48.736Z,100662.72
2023-09-27T15:29:16.498Z,100663.53
2023-09-27T15:31:44.584Z,100668.94
2023-09-27T15:34:12.390Z,100668.09
2023-09-27T15:36:40.502Z,100668.56
2023-09-27T15:39:08.421Z,100669.63
2023-09-27T15:41:36.111Z,100670.94
2023-09-27T15:44:06.083Z,100665.19
2023-09-27T15:46:40.889Z,100658.66
2023-09-27T15:49:08.849Z,100658.50
2023-09-27T15:51:38.632Z,100656.78
2023-09-27T15:54:16.233Z,100664.16
2023-09-27T15:56:46.497Z,100663.91
2023-09-27T15:59:15.945Z,100656.44
2023-09-27T16:01:43.974Z,100665.94
2023-09-27T16:04:12.484Z,100665.81
2023-09-27T16:06:41.146Z,100668.84
2023-09-27T16:09:11.605Z,100668.94
2023-09-27T16:11:40.082Z,100661.19
2023-09-27T16:14:09.305Z,100665.06
2023-09-27T16:16:38.398Z,100664.19
2023-09-27T16:19:06.319Z,100681.38
2023-09-27T16:21:34.144Z,100671.84
2023-09-27T16:24:02.412Z,100673.91
2023-09-27T16:26:31.104Z,100674.28
2023-09-27T16:28:58.853Z,100666.38
2023-09-27T16:31:33.340Z,100681.81
2023-09-27T16:34:03.821Z,100678.69
2023-09-27T16:36:31.799Z,100676.38
2023-09-27T16:39:01.093Z,100663.91
2023-09-27T16:41:29.058Z,100669.59
2023-09-27T16:43:56.958Z,100661.06
2023-09-27T16:46:24.923Z,100666.56
2023-09-27T16:48:52.680Z,100660.50
2023-09-27T16:51:22.020Z,100659.78
2023-09-27T16:53:49.887Z,100659.06
2023-09-27T16:56:17.584Z,100659.72
2023-09-27T16:58:45.378Z,100657.72
2023-09-27T17:01:18.390Z,100654.88
2023-09-27T17:03:46.367Z,100654.97
2023-09-27T17:06:18.701Z,100650.25
2023-09-27T17:08:49.181Z,100648.47
2023-09-27T17:11:23.043Z,100652.66
2023-09-27T17:13:51.155Z,100646.06
2023-09-27T17:16:23.045Z,100650.44
2023-09-27T17:18:51.735Z,100645.69
2023-09-27T17:21:19.548Z,100644.50
2023-09-27T17:23:47.283Z,100643.28
2023-09-27T17:26:16.388Z,100642.66
2023-09-27T17:28:44.392Z,100631.34
2023-09-27T17:31:12.790Z,100641.44
2023-09-27T17:33:41.750Z,100638.16
2023-09-27T17:36:09.567Z,100643.72
2023-09-27T17:38:37.752Z,100648.63
2023-09-27T17:41:05.472Z,100649.25
2023-09-27T17:43:35.541Z,100648.00
2023-09-27T17:46:05.115Z,100631.09
2023-09-27T17:48:33.051Z,100626.13
2023-09-27T17:51:00.948Z,100625.50
2023-09-27T17:53:29.535Z,100635.34
2023-09-27T17:55:57.503Z,100644.38
2023-09-27T17:58:25.225Z,100643.94
2023-09-27T18:00:54.774Z,100643.91
2023-09-27T18:03:24.456Z,100640.59
2023-09-27T18:05:52.250Z,100646.72
2023-09-27T18:08:19.989Z,100641.38
2023-09-27T18:10:48.789Z,100641.31
2023-09-27T18:13:16.539Z,100626.09
2023-09-27T18:15:44.966Z,100632.41
2023-09-27T18:18:14.128Z,100635.03
2023-09-27T18:20:41.896Z,100636.81
2023-09-27T18:23:09.782Z,100632.28
2023-09-27T18:25:37.565Z,100634.72
2023-09-27T18:28:05.802Z,100625.03
2023-09-27T18:30:33.519Z,100629.06
2023-09-27T18:33:01.266Z,100628.84
2023-09-27T18:35:30.722Z,100626.97
2023-09-27T18:37:58.635Z,100628.34
2023-09-27T18:40:26.790Z,100629.13
2023-09-27T18:42:54.580Z,100620.91
2023-09-27T18:45:22.459Z,100627.00
2023-09-27T18:47:52.051Z,100625.72
2023-09-27T18:50:20.958Z,100620.53
2023-09-27T18:52:50.324Z,100621.13
2023-09-27T18:55:18.154Z,100626.81
2023-09-27T18:57:45.961Z,100624.56
2023-09-27T19:00:14.452Z,100609.75
2023-09-27T19:02:43.092Z,100612.78
2023-09-27T19:05:11.495Z,100620.19
2023-09-27T19:07:39.261Z,100611.72
2023-09-27T19:10:10.433Z,100612.75
2023-09-27T19:12:38.209Z,100617.25
2023-09-27T19:15:06.525Z,100627.28
2023-09-27T19:17:34.612Z,100623.16
2023-09-27T19:20:06.457Z,100623.34
2023-09-27T19:22:34.345Z,100622.78
2023-09-27T19:25:02.392Z,100614.41
2023-09-27T19:27:32.042Z,100605.00
2023-09-27T19:29:59.891Z,100604.44
2023-09-27T19:32:28.376Z,100601.00
2023-09-27T19:34:56.292Z,100593.63
2023-09-27T19:37:24.077Z,100602.28
2023-09-27T19:39:51.909Z,100595.91
2023-09-27T19:42:20.005Z,100592.22
2023-09-27T19:44:49.081Z,100591.59
2023-09-27T19:47:16.843Z,100586.47
2023-09-27T19:49:44.580Z,100588.50
2023-09-27T19:52:12.410Z,100584.34
2023-09-27T19:54:40.087Z,100574.75
2023-09-27T19:57:07.820Z,100575.34
2023-09-27T19:59:36.673Z,100577.00
2023-09-27T20:02:06.282Z,100576.34
2023-09-27T20:04:34.074Z,100580.91
2023-09-27T20:07:01.809Z,100572.25
2023-09-27T20:09:29.524Z,100574.94
2023-09-27T20:11:57.393Z,100583.75
2023-09-27T20:14:25.272Z,100577.59
2023-09-27T20:16:53.137Z,100579.44
2023-09-27T20:19:22.249Z,100581.91
2023-09-27T20:21:55.897Z,100583.75
2023-09-27T20:24:23.954Z,100578.22
2023-09-27T20:26:51.762Z,100575.56
2023-09-27T20:29:19.735Z,100577.19
2023-09-27T20:31:47.541Z,100576.81
2023-09-27T20:34:15.354Z,100570.88
2023-09-27T20:36:44.693Z,100566.38
2023-09-27T20:39:12.504Z,100569.69
2023-09-27T20:41:40.342Z,100578.50
2023-09-27T20:44:08.558Z,100583.84
2023-09-27T20:46:36.411Z,100577.69
2023-09-27T20:49:04.420Z,100572.72
2023-09-27T20:51:32.234Z,100576.22
2023-09-27T20:54:01.493Z,100574.19
2023-09-27T20:56:29.334Z,100567.84
2023-09-27T20:58:57.159Z,100571.16
2023-09-27T21:01:26.091Z,100560.91
2023-09-27T21:03:54.639Z,100566.69
2023-09-27T21:06:26.733Z,100556.63
2023-09-27T21:08:54.571Z,100546.59
2023-09-27T21:11:25.595Z,100541.09
2023-09-27T21:13:55.676Z,100540.94
2023-09-27T21:16:24.823Z,100536.00
2023-09-27T21:18:53.975Z,100529.94
2023-09-27T21:21:23.621Z,100537.50
2023-09-27T21:23:52.950Z,100534.66
2023-09-27T21:26:21.465Z,100527.88
2023-09-27T21:28:50.761Z,100522.13
2023-09-27T21:31:18.674Z,100523.72
2023-09-27T21:33:46.484Z,100520.63
2023-09-27T21:36:15.304Z,100519.16
2023-09-27T21:38:43.101Z,100523.25
2023-09-27T21:41:10.855Z,100524.88
2023-09-27T21:43:39.854Z,100515.78
2023-09-27T21:46:18.380Z,100505.91
2023-09-27T21:48:48.773Z,100503.81
2023-09-27T21:51:16.944Z,100509.72
2023-09-27T21:53:44.868Z,100521.81
2023-09-27T21:56:14.927Z,100515.22
2023-09-27T21:58:43.596Z,100517.25
2023-09-27T22:01:12.802Z,100512.75
2023-09-27T22:03:42.471Z,100512.75
2023-09-27T22:06:11.505Z,100508.44
2023-09-27T22:08:45.262Z,100506.16
2023-09-27T22:11:13.163Z,100507.38
2023-09-27T22:13:43.574Z,100509.41
2023-09-27T22:16:11.921Z,100513.44
2023-09-27T22:18:43.047Z,100512.03
2023-09-27T22:21:19.580Z,100517.53
2023-09-27T22:23:47.390Z,100519.38
2023-09-27T22:26:18.329Z,100513.22
2023-09-27T22:28:47.995Z,100509.72
2023-09-27T22:31:27.273Z,100507.69
2023-09-27T22:33:57.930Z,100502.56
2023-09-27T22:36:29.017Z,100500.09
2023-09-27T22:38:56.826Z,100500.09
2023-09-27T22:41:29.814Z,100500.28
2023-09-27T22:43:57.804Z,100502.31
2023-09-27T22:46:25.560Z,100495.97
2023-09-27T22:48:53.805Z,100498.84
2023-09-27T22:51:21.620Z,100491.84
2023-09-27T22:53:50.899Z,100493.50
2023-09-27T22:56:18.652Z,100497.19
2023-09-27T22:58:46.466Z,100497.00
2023-09-27T23:01:29.529Z,100498.66
2023-09-27T23:03:59.377Z,100492.31
2023-09-27T23:06:27.093Z,100489.66
2023-09-27T23:09:01.074Z,100482.25
2023-09-27T23:11:29.718Z,100469.56
2023-09-27T23:13:59.651Z,100460.38
2023-09-27T23:16:31.080Z,100468.97
2023-09-27T23:19:01.544Z,100465.31
2023-09-27T23:21:31.498Z,100455.09
2023-09-27T23:24:22.068Z,100453.88
2023-09-27T23:27:03.754Z,100463.50
2023-09-27T23:29:37.647Z,100454.94
2023-09-27T23:32:23.199Z,100464.38
2023-09-27T23:34:51.681Z,100459.50
2023-09-27T23:37:31.529Z,100450.91
2023-09-27T23:40:01.566Z,100455.84
2023-09-27T23:42:35.499Z,100448.50
2023-09-27T23:45:09.822Z,100450.09
2023-09-27T23:47:44.368Z,100447.44
2023-09-27T23:50:16.248Z,100442.09
2023-09-27T23:52:46.689Z,100441.09
2023-09-27T23:55:16.972Z,100443.75
2023-09-27T23:57:48.282Z,100436.59
